sensor_id;sensor_type;location;lat;lon;timestamp;pressure;altitude;pressure_sealevel;temperature;humidity
40954;BME280;26686;50.130;8.710;2023-02-25T00:02:10;98991.16;;;6.12;62.64
40954;BME280;26686;50.130;8.710;2023-02-25T00:07:12;98998.91;;;6.25;62.78
40954;BME280;26686;50.130;8.710;2023-02-25T00:12:13;99004.78;;;6.49;61.52
40954;BME280;26686;50.130;8.710;2023-02-25T00:17:15;98999.44;;;6.40;61.98
40954;BME280;26686;50.130;8.710;2023-02-25T00:22:16;99023.59;;;6.35;62.81
40954;BME280;26686;50.130;8.710;2023-02-25T00:27:18;99011.75;;;6.29;63.46
40954;BME280;26686;50.130;8.710;2023-02-25T00:32:20;99026.59;;;6.42;63.91
40954;BME280;26686;50.130;8.710;2023-02-25T00:37:23;99024.13;;;6.50;63.77
40954;BME280;26686;50.130;8.710;2023-02-25T00:42:24;99023.81;;;6.43;63.51
40954;BME280;26686;50.130;8.710;2023-02-25T00:47:26;99031.63;;;6.45;63.12
40954;BME280;26686;50.130;8.710;2023-02-25T00:52:28;99037.09;;;6.53;62.36
40954;BME280;26686;50.130;8.710;2023-02-25T00:57:30;99045.75;;;6.55;61.98
40954;BME280;26686;50.130;8.710;2023-02-25T01:02:31;99020.88;;;6.58;61.74
40954;BME280;26686;50.130;8.710;2023-02-25T01:07:33;99024.13;;;6.50;62.46
40954;BME280;26686;50.130;8.710;2023-02-25T01:12:35;99025.56;;;6.54;61.34
40954;BME280;26686;50.130;8.710;2023-02-25T01:17:37;99024.47;;;6.57;61.61
40954;BME280;26686;50.130;8.710;2023-02-25T01:22:39;99035.34;;;6.63;61.95
40954;BME280;26686;50.130;8.710;2023-02-25T01:27:42;99037.50;;;6.69;62.18
40954;BME280;26686;50.130;8.710;2023-02-25T01:32:44;99014.47;;;6.60;62.24
40954;BME280;26686;50.130;8.710;2023-02-25T01:37:46;99021.97;;;6.55;62.19
40954;BME280;26686;50.130;8.710;2023-02-25T01:42:50;99010.06;;;6.49;63.01
40954;BME280;26686;50.130;8.710;2023-02-25T01:47:57;99014.28;;;6.52;63.19
40954;BME280;26686;50.130;8.710;2023-02-25T01:53:01;99020.91;;;6.67;62.69
40954;BME280;26686;50.130;8.710;2023-02-25T01:58:03;99020.28;;;6.75;62.22
40954;BME280;26686;50.130;8.710;2023-02-25T02:03:06;99018.75;;;6.72;62.26
40954;BME280;26686;50.130;8.710;2023-02-25T02:08:16;99027.13;;;6.57;62.09
40954;BME280;26686;50.130;8.710;2023-02-25T02:13:18;99020.47;;;6.62;62.39
40954;BME280;26686;50.130;8.710;2023-02-25T02:18:21;99029.19;;;6.74;61.98
40954;BME280;26686;50.130;8.710;2023-02-25T02:23:45;99034.13;;;6.46;61.02
40954;BME280;26686;50.130;8.710;2023-02-25T02:34:33;99022.22;;;6.19;57.33
40954;BME280;26686;50.130;8.710;2023-02-25T02:45:05;99024.81;;;5.98;56.04
40954;BME280;26686;50.130;8.710;2023-02-25T02:50:17;99003.44;;;6.01;55.28
40954;BME280;26686;50.130;8.710;2023-02-25T02:55:26;99022.16;;;6.10;54.18
40954;BME280;26686;50.130;8.710;2023-02-25T03:00:36;99015.94;;;5.99;54.32
40954;BME280;26686;50.130;8.710;2023-02-25T03:05:41;99028.28;;;5.88;55.83
40954;BME280;26686;50.130;8.710;2023-02-25T03:10:44;99046.88;;;6.09;56.33
40954;BME280;26686;50.130;8.710;2023-02-25T03:15:46;99045.38;;;6.27;56.80
40954;BME280;26686;50.130;8.710;2023-02-25T03:20:49;99026.63;;;6.30;57.17
40954;BME280;26686;50.130;8.710;2023-02-25T03:26:13;99056.34;;;6.44;57.16
40954;BME280;26686;50.130;8.710;2023-02-25T03:31:23;99053.13;;;6.40;57.51
40954;BME280;26686;50.130;8.710;2023-02-25T03:36:30;99040.06;;;6.39;56.75
40954;BME280;26686;50.130;8.710;2023-02-25T03:41:35;99060.66;;;6.56;57.72
40954;BME280;26686;50.130;8.710;2023-02-25T03:46:41;99057.88;;;6.58;57.36
40954;BME280;26686;50.130;8.710;2023-02-25T03:51:45;99057.63;;;6.61;57.73
40954;BME280;26686;50.130;8.710;2023-02-25T03:56:50;99040.69;;;6.31;58.14
40954;BME280;26686;50.130;8.710;2023-02-25T04:01:52;99074.09;;;6.53;58.05
40954;BME280;26686;50.130;8.710;2023-02-25T04:06:54;99077.59;;;6.53;58.33
40954;BME280;26686;50.130;8.710;2023-02-25T04:11:56;99084.81;;;6.51;59.00
40954;BME280;26686;50.130;8.710;2023-02-25T04:16:57;99079.63;;;6.61;58.60
40954;BME280;26686;50.130;8.710;2023-02-25T04:21:59;99079.09;;;6.67;58.28
40954;BME280;26686;50.130;8.710;2023-02-25T04:27:01;99082.25;;;6.61;58.13
40954;BME280;26686;50.130;8.710;2023-02-25T04:32:02;99070.72;;;6.62;58.47
40954;BME280;26686;50.130;8.710;2023-02-25T04:37:05;99072.63;;;6.60;58.60
40954;BME280;26686;50.130;8.710;2023-02-25T04:42:07;99080.75;;;6.47;58.89
40954;BME280;26686;50.130;8.710;2023-02-25T04:47:08;99081.38;;;6.40;59.10
40954;BME280;26686;50.130;8.710;2023-02-25T04:52:11;99076.56;;;6.33;59.73
40954;BME280;26686;50.130;8.710;2023-02-25T04:57:13;99082.38;;;6.27;60.37
40954;BME280;26686;50.130;8.710;2023-02-25T05:02:15;99077.00;;;6.17;60.09
40954;BME280;26686;50.130;8.710;2023-02-25T05:07:16;99089.25;;;6.18;61.02
40954;BME280;26686;50.130;8.710;2023-02-25T05:12:18;99088.50;;;6.28;60.91
40954;BME280;26686;50.130;8.710;2023-02-25T05:17:19;99092.34;;;6.24;60.96
40954;BME280;26686;50.130;8.710;2023-02-25T05:22:21;99080.97;;;6.12;61.45
40954;BME280;26686;50.130;8.710;2023-02-25T05:27:23;99089.59;;;6.14;61.40
40954;BME280;26686;50.130;8.710;2023-02-25T05:32:24;99098.72;;;6.21;61.38
40954;BME280;26686;50.130;8.710;2023-02-25T05:37:26;99088.50;;;6.28;61.50
40954;BME280;26686;50.130;8.710;2023-02-25T05:42:27;99094.22;;;6.44;61.34
40954;BME280;26686;50.130;8.710;2023-02-25T05:47:29;99083.03;;;6.41;61.38
40954;BME280;26686;50.130;8.710;2023-02-25T05:52:31;99080.38;;;6.52;60.92
40954;BME280;26686;50.130;8.710;2023-02-25T05:57:33;99078.69;;;6.51;60.72
40954;BME280;26686;50.130;8.710;2023-02-25T06:02:35;99094.66;;;6.61;60.68
40954;BME280;26686;50.130;8.710;2023-02-25T06:07:37;99107.06;;;6.49;60.51
40954;BME280;26686;50.130;8.710;2023-02-25T06:12:38;99094.38;;;6.31;61.05
40954;BME280;26686;50.130;8.710;2023-02-25T06:17:40;99098.97;;;6.29;61.73
40954;BME280;26686;50.130;8.710;2023-02-25T06:22:42;99106.28;;;6.26;61.59
40954;BME280;26686;50.130;8.710;2023-02-25T06:27:43;99102.78;;;6.36;61.66
40954;BME280;26686;50.130;8.710;2023-02-25T06:32:45;99121.75;;;6.42;61.11
40954;BME280;26686;50.130;8.710;2023-02-25T06:37:46;99118.66;;;6.36;61.43
40954;BME280;26686;50.130;8.710;2023-02-25T06:42:48;99113.13;;;6.28;61.58
40954;BME280;26686;50.130;8.710;2023-02-25T06:47:50;99129.81;;;6.40;61.76
40954;BME280;26686;50.130;8.710;2023-02-25T06:52:51;99127.72;;;6.55;61.13
40954;BME280;26686;50.130;8.710;2023-02-25T06:57:54;99135.16;;;6.50;60.87
40954;BME280;26686;50.130;8.710;2023-02-25T07:02:56;99133.13;;;6.53;61.32
40954;BME280;26686;50.130;8.710;2023-02-25T07:07:58;99133.78;;;6.34;61.73
40954;BME280;26686;50.130;8.710;2023-02-25T07:12:59;99118.53;;;6.27;61.78
40954;BME280;26686;50.130;8.710;2023-02-25T07:18:02;99124.31;;;6.21;61.98
40954;BME280;26686;50.130;8.710;2023-02-25T07:23:04;99147.47;;;6.40;62.08
40954;BME280;26686;50.130;8.710;2023-02-25T07:28:06;99156.09;;;6.42;62.56
40954;BME280;26686;50.130;8.710;2023-02-25T07:33:08;99141.44;;;6.37;62.05
40954;BME280;26686;50.130;8.710;2023-02-25T07:38:09;99162.09;;;6.55;61.93
40954;BME280;26686;50.130;8.710;2023-02-25T07:43:13;99169.78;;;6.58;61.67
40954;BME280;26686;50.130;8.710;2023-02-25T07:48:15;99166.50;;;6.66;61.46
40954;BME280;26686;50.130;8.710;2023-02-25T07:53:16;99144.75;;;6.62;61.24
40954;BME280;26686;50.130;8.710;2023-02-25T07:58:19;99158.69;;;6.64;61.06
40954;BME280;26686;50.130;8.710;2023-02-25T08:03:20;99181.69;;;6.52;61.96
40954;BME280;26686;50.130;8.710;2023-02-25T08:08:22;99166.44;;;6.45;61.86
40954;BME280;26686;50.130;8.710;2023-02-25T08:13:23;99158.97;;;6.50;61.77
40954;BME280;26686;50.130;8.710;2023-02-25T08:18:25;99179.97;;;6.51;62.14
40954;BME280;26686;50.130;8.710;2023-02-25T08:23:26;99186.63;;;6.46;62.57
40954;BME280;26686;50.130;8.710;2023-02-25T08:28:28;99183.25;;;6.44;62.37
40954;BME280;26686;50.130;8.710;2023-02-25T08:33:42;99195.00;;;6.51;62.51
40954;BME280;26686;50.130;8.710;2023-02-25T08:38:44;99172.91;;;6.41;62.22
40954;BME280;26686;50.130;8.710;2023-02-25T08:43:52;99179.63;;;6.56;61.62
40954;BME280;26686;50.130;8.710;2023-02-25T08:48:55;99190.34;;;6.54;61.96
40954;BME280;26686;50.130;8.710;2023-02-25T08:53:57;99195.97;;;6.61;61.84
40954;BME280;26686;50.130;8.710;2023-02-25T08:59:00;99186.22;;;6.62;61.95
40954;BME280;26686;50.130;8.710;2023-02-25T09:04:01;99194.47;;;6.80;61.27
40954;BME280;26686;50.130;8.710;2023-02-25T09:09:03;99203.41;;;7.00;60.11
40954;BME280;26686;50.130;8.710;2023-02-25T09:14:06;99198.84;;;7.23;59.11
40954;BME280;26686;50.130;8.710;2023-02-25T09:19:08;99189.81;;;7.25;58.52
40954;BME280;26686;50.130;8.710;2023-02-25T09:24:11;99208.22;;;7.27;58.56
40954;BME280;26686;50.130;8.710;2023-02-25T09:29:13;99208.00;;;7.19;57.71
40954;BME280;26686;50.130;8.710;2023-02-25T09:34:15;99205.63;;;7.16;57.58
40954;BME280;26686;50.130;8.710;2023-02-25T09:39:16;99206.88;;;7.33;57.17
40954;BME280;26686;50.130;8.710;2023-02-25T09:44:47;99202.16;;;7.36;56.52
40954;BME280;26686;50.130;8.710;2023-02-25T09:49:54;99196.84;;;7.78;55.01
40954;BME280;26686;50.130;8.710;2023-02-25T09:59:57;99168.72;;;8.98;50.86
40954;BME280;26686;50.130;8.710;2023-02-25T10:05:16;99182.28;;;9.14;50.29
40954;BME280;26686;50.130;8.710;2023-02-25T10:15:31;99186.72;;;8.84;49.48
40954;BME280;26686;50.130;8.710;2023-02-25T10:25:44;99197.47;;;8.83;50.28
40954;BME280;26686;50.130;8.710;2023-02-25T10:30:58;99196.31;;;8.56;50.12
40954;BME280;26686;50.130;8.710;2023-02-25T10:36:09;99195.09;;;8.20;49.99
40954;BME280;26686;50.130;8.710;2023-02-25T10:41:15;99199.03;;;8.04;51.13
40954;BME280;26686;50.130;8.710;2023-02-25T10:46:32;99193.66;;;8.16;51.41
40954;BME280;26686;50.130;8.710;2023-02-25T10:51:36;99206.09;;;8.56;50.68
40954;BME280;26686;50.130;8.710;2023-02-25T10:56:42;99195.47;;;9.73;48.71
40954;BME280;26686;50.130;8.710;2023-02-25T11:01:45;99200.63;;;9.65;48.03
40954;BME280;26686;50.130;8.710;2023-02-25T11:06:48;99202.78;;;9.12;49.19
40954;BME280;26686;50.130;8.710;2023-02-25T11:12:08;99187.97;;;8.90;49.87
40954;BME280;26686;50.130;8.710;2023-02-25T11:22:29;99194.34;;;8.18;51.07
40954;BME280;26686;50.130;8.710;2023-02-25T11:27:37;99208.22;;;8.31;51.33
40954;BME280;26686;50.130;8.710;2023-02-25T11:32:44;99208.59;;;7.86;53.51
40954;BME280;26686;50.130;8.710;2023-02-25T11:37:49;99204.69;;;7.05;57.80
40954;BME280;26686;50.130;8.710;2023-02-25T11:43:23;99249.03;;;7.88;59.21
40954;BME280;26686;50.130;8.710;2023-02-25T11:48:27;99239.84;;;13.28;48.52
40954;BME280;26686;50.130;8.710;2023-02-25T11:53:39;99217.25;;;17.89;36.49
40954;BME280;26686;50.130;8.710;2023-02-25T12:09:41;99209.50;;;15.44;37.90
40954;BME280;26686;50.130;8.710;2023-02-25T12:15:23;99215.09;;;14.00;40.75
40954;BME280;26686;50.130;8.710;2023-02-25T12:26:41;99197.00;;;11.05;46.25
40954;BME280;26686;50.130;8.710;2023-02-25T12:58:31;99201.13;;;13.40;39.71
40954;BME280;26686;50.130;8.710;2023-02-25T13:09:20;99195.97;;;15.60;34.66
40954;BME280;26686;50.130;8.710;2023-02-25T13:14:56;99210.44;;;14.81;35.71
40954;BME280;26686;50.130;8.710;2023-02-25T13:31:03;99190.91;;;10.58;41.34
40954;BME280;26686;50.130;8.710;2023-02-25T13:47:12;99209.34;;;14.28;36.98
40954;BME280;26686;50.130;8.710;2023-02-25T13:52:31;99215.53;;;17.10;33.68
40954;BME280;26686;50.130;8.710;2023-02-25T14:03:43;99218.47;;;11.21;45.05
40954;BME280;26686;50.130;8.710;2023-02-25T14:09:10;99250.81;;;11.62;45.07
40954;BME280;26686;50.130;8.710;2023-02-25T14:19:56;99288.31;;;9.26;51.98
40954;BME280;26686;50.130;8.710;2023-02-25T14:25:15;99288.81;;;8.80;54.84
40954;BME280;26686;50.130;8.710;2023-02-25T14:35:56;99296.84;;;8.59;55.93
40954;BME280;26686;50.130;8.710;2023-02-25T14:57:09;99280.66;;;16.60;37.93
40954;BME280;26686;50.130;8.710;2023-02-25T15:13:20;99304.66;;;14.37;38.35
40954;BME280;26686;50.130;8.710;2023-02-25T15:23:48;99310.13;;;10.83;42.20
40954;BME280;26686;50.130;8.710;2023-02-25T15:28:54;99321.88;;;10.52;40.09
40954;BME280;26686;50.130;8.710;2023-02-25T15:39:51;99337.84;;;9.66;38.65
40954;BME280;26686;50.130;8.710;2023-02-25T15:45:27;99344.91;;;9.26;39.75
40954;BME280;26686;50.130;8.710;2023-02-25T15:55:43;99371.53;;;8.95;38.79
40954;BME280;26686;50.130;8.710;2023-02-25T16:05:46;99388.47;;;8.00;40.53
40954;BME280;26686;50.130;8.710;2023-02-25T16:10:50;99392.13;;;7.88;40.39
40954;BME280;26686;50.130;8.710;2023-02-25T16:15:54;99414.47;;;7.63;39.22
40954;BME280;26686;50.130;8.710;2023-02-25T16:21:01;99413.72;;;7.39;39.05
40954;BME280;26686;50.130;8.710;2023-02-25T16:32:03;99437.31;;;7.08;39.07
40954;BME280;26686;50.130;8.710;2023-02-25T16:42:31;99453.44;;;6.83;39.29
40954;BME280;26686;50.130;8.710;2023-02-25T16:47:35;99471.50;;;7.00;39.94
40954;BME280;26686;50.130;8.710;2023-02-25T16:52:45;99478.97;;;6.95;39.37
40954;BME280;26686;50.130;8.710;2023-02-25T16:58:19;99448.84;;;6.51;39.83
40954;BME280;26686;50.130;8.710;2023-02-25T17:03:23;99503.69;;;6.71;40.57
40954;BME280;26686;50.130;8.710;2023-02-25T17:08:26;99513.53;;;6.69;40.65
40954;BME280;26686;50.130;8.710;2023-02-25T17:13:31;99528.94;;;6.64;41.00
40954;BME280;26686;50.130;8.710;2023-02-25T17:18:46;99540.97;;;6.68;41.19
40954;BME280;26686;50.130;8.710;2023-02-25T17:23:49;99547.06;;;6.58;41.14
40954;BME280;26686;50.130;8.710;2023-02-25T17:28:54;99553.34;;;6.32;41.71
40954;BME280;26686;50.130;8.710;2023-02-25T17:34:00;99566.00;;;6.16;40.92
40954;BME280;26686;50.130;8.710;2023-02-25T17:39:06;99585.22;;;6.18;39.78
40954;BME280;26686;50.130;8.710;2023-02-25T17:49:39;99592.03;;;5.96;39.96
40954;BME280;26686;50.130;8.710;2023-02-25T17:54:45;99602.19;;;6.03;40.64
40954;BME280;26686;50.130;8.710;2023-02-25T17:59:53;99608.31;;;5.90;40.25
40954;BME280;26686;50.130;8.710;2023-02-25T18:10:48;99623.78;;;5.71;39.98
40954;BME280;26686;50.130;8.710;2023-02-25T18:21:28;99630.72;;;5.72;40.13
40954;BME280;26686;50.130;8.710;2023-02-25T18:26:30;99634.84;;;5.63;41.09
40954;BME280;26686;50.130;8.710;2023-02-25T18:31:32;99646.50;;;5.60;42.05
40954;BME280;26686;50.130;8.710;2023-02-25T18:36:35;99636.25;;;5.43;42.23
40954;BME280;26686;50.130;8.710;2023-02-25T18:41:36;99649.44;;;5.43;42.09
40954;BME280;26686;50.130;8.710;2023-02-25T18:46:38;99642.16;;;5.34;42.39
40954;BME280;26686;50.130;8.710;2023-02-25T18:51:39;99652.94;;;5.30;42.43
40954;BME280;26686;50.130;8.710;2023-02-25T18:56:41;99653.56;;;5.21;42.58
40954;BME280;26686;50.130;8.710;2023-02-25T19:01:42;99659.88;;;5.19;43.09
40954;BME280;26686;50.130;8.710;2023-02-25T19:06:44;99670.03;;;5.12;43.13
40954;BME280;26686;50.130;8.710;2023-02-25T19:11:47;99675.69;;;5.06;43.03
40954;BME280;26686;50.130;8.710;2023-02-25T19:16:48;99680.44;;;5.01;43.49
40954;BME280;26686;50.130;8.710;2023-02-25T19:21:50;99692.78;;;5.00;43.66
40954;BME280;26686;50.130;8.710;2023-02-25T19:26:52;99695.84;;;4.94;43.88
40954;BME280;26686;50.130;8.710;2023-02-25T19:31:53;99705.94;;;4.87;43.91
40954;BME280;26686;50.130;8.710;2023-02-25T19:36:55;99713.84;;;4.87;44.19
40954;BME280;26686;50.130;8.710;2023-02-25T19:41:57;99722.69;;;4.86;44.34
40954;BME280;26686;50.130;8.710;2023-02-25T19:46:58;99730.06;;;4.81;44.05
40954;BME280;26686;50.130;8.710;2023-02-25T19:52:00;99725.59;;;4.69;44.90
40954;BME280;26686;50.130;8.710;2023-02-25T19:57:01;99727.84;;;4.60;44.92
40954;BME280;26686;50.130;8.710;2023-02-25T20:02:03;99750.06;;;4.71;45.03
40954;BME280;26686;50.130;8.710;2023-02-25T20:07:05;99751.09;;;4.68;45.75
40954;BME280;26686;50.130;8.710;2023-02-25T20:12:07;99758.34;;;4.65;45.57
40954;BME280;26686;50.130;8.710;2023-02-25T20:17:08;99765.53;;;4.63;45.73
40954;BME280;26686;50.130;8.710;2023-02-25T20:22:10;99775.31;;;4.60;45.53
40954;BME280;26686;50.130;8.710;2023-02-25T20:27:11;99779.38;;;4.52;45.63
40954;BME280;26686;50.130;8.710;2023-02-25T20:32:13;99776.28;;;4.45;45.88
40954;BME280;26686;50.130;8.710;2023-02-25T20:37:20;99766.88;;;4.41;46.40
40954;BME280;26686;50.130;8.710;2023-02-25T20:42:26;99786.19;;;4.41;46.12
40954;BME280;26686;50.130;8.710;2023-02-25T20:47:31;99796.06;;;4.38;45.67
40954;BME280;26686;50.130;8.710;2023-02-25T20:52:35;99798.88;;;4.35;46.28
40954;BME280;26686;50.130;8.710;2023-02-25T20:57:37;99791.53;;;4.25;46.18
40954;BME280;26686;50.130;8.710;2023-02-25T21:02:38;99771.81;;;4.04;46.15
40954;BME280;26686;50.130;8.710;2023-02-25T21:07:40;99822.31;;;4.25;45.83
40954;BME280;26686;50.130;8.710;2023-02-25T21:12:42;99815.25;;;4.25;45.84
40954;BME280;26686;50.130;8.710;2023-02-25T21:17:44;99826.53;;;4.28;45.76
40954;BME280;26686;50.130;8.710;2023-02-25T21:22:46;99832.00;;;4.24;45.84
40954;BME280;26686;50.130;8.710;2023-02-25T21:27:48;99817.44;;;4.19;46.23
40954;BME280;26686;50.130;8.710;2023-02-25T21:32:50;99825.97;;;4.08;47.16
40954;BME280;26686;50.130;8.710;2023-02-25T21:37:51;99833.28;;;3.88;46.83
40954;BME280;26686;50.130;8.710;2023-02-25T21:42:54;99816.91;;;3.83;47.21
40954;BME280;26686;50.130;8.710;2023-02-25T21:47:56;99842.31;;;3.99;47.38
40954;BME280;26686;50.130;8.710;2023-02-25T21:52:57;99845.88;;;3.98;46.60
40954;BME280;26686;50.130;8.710;2023-02-25T21:57:59;99853.22;;;3.93;46.38
40954;BME280;26686;50.130;8.710;2023-02-25T22:03:01;99852.75;;;4.00;46.49
40954;BME280;26686;50.130;8.710;2023-02-25T22:08:04;99843.25;;;3.98;46.77
40954;BME280;26686;50.130;8.710;2023-02-25T22:13:07;99853.69;;;3.85;47.41
40954;BME280;26686;50.130;8.710;2023-02-25T22:18:08;99832.91;;;3.80;47.11
40954;BME280;26686;50.130;8.710;2023-02-25T22:23:10;99857.16;;;3.85;47.38
40954;BME280;26686;50.130;8.710;2023-02-25T22:28:11;99856.28;;;4.01;48.08
40954;BME280;26686;50.130;8.710;2023-02-25T22:33:13;99862.56;;;3.98;47.78
40954;BME280;26686;50.130;8.710;2023-02-25T22:38:15;99852.38;;;3.92;47.19
40954;BME280;26686;50.130;8.710;2023-02-25T22:43:16;99844.59;;;3.91;47.28
40954;BME280;26686;50.130;8.710;2023-02-25T22:48:18;99864.13;;;3.86;46.88
40954;BME280;26686;50.130;8.710;2023-02-25T22:53:19;99855.47;;;3.84;46.43
40954;BME280;26686;50.130;8.710;2023-02-25T22:58:24;99851.88;;;3.71;46.68
40954;BME280;26686;50.130;8.710;2023-02-25T23:03:26;99877.09;;;3.89;46.80
40954;BME280;26686;50.130;8.710;2023-02-25T23:08:29;99875.84;;;3.81;46.40
40954;BME280;26686;50.130;8.710;2023-02-25T23:13:30;99878.75;;;3.76;46.86
40954;BME280;26686;50.130;8.710;2023-02-25T23:18:32;99867.06;;;3.66;46.74
40954;BME280;26686;50.130;8.710;2023-02-25T23:23:34;99881.84;;;3.68;46.80
40954;BME280;26686;50.130;8.710;2023-02-25T23:28:40;99855.78;;;3.33;47.62
40954;BME280;26686;50.130;8.710;2023-02-25T23:33:42;99883.41;;;3.57;47.14
40954;BME280;26686;50.130;8.710;2023-02-25T23:38:43;99886.38;;;3.66;47.32
40954;BME280;26686;50.130;8.710;2023-02-25T23:43:45;99890.56;;;3.69;47.44
40954;BME280;26686;50.130;8.710;2023-02-25T23:48:46;99882.59;;;3.70;47.53
40954;BME280;26686;50.130;8.710;2023-02-25T23:53:52;99847.44;;;3.41;47.51
40954;BME280;26686;50.130;8.710;2023-02-25T23:58:55;99880.81;;;3.71;47.71
